createdAt,value
2019-04-26T00:00:00.123Z,1003.56
2019-04-26T00:01:00.113Z,1003.56
2019-04-26T00:02:00.126Z,1003.59
2019-04-26T00:03:00.140Z,1003.62
2019-04-26T00:04:00.139Z,1003.53
2019-04-26T00:05:00.257Z,1003.52
2019-04-26T00:06:00.185Z,1003.48
2019-04-26T00:07:00.176Z,1003.46
2019-04-26T00:08:00.215Z,1003.47
2019-04-26T00:09:00.185Z,1003.45
2019-04-26T00:10:00.190Z,1003.48
2019-04-26T00:11:00.205Z,1003.43
2019-04-26T00:12:00.218Z,1003.37
2019-04-26T00:13:00.220Z,1003.34
2019-04-26T00:14:00.223Z,1003.36
2019-04-26T00:15:00.227Z,1003.32
2019-04-26T00:16:00.236Z,1003.28
2019-04-26T00:17:00.250Z,1003.25
2019-04-26T00:18:00.263Z,1003.31
2019-04-26T00:19:00.263Z,1003.32
2019-04-26T00:20:00.270Z,1003.29
2019-04-26T00:21:00.287Z,1003.28
2019-04-26T00:22:00.293Z,1003.24
2019-04-26T00:23:00.296Z,1003.23
2019-04-26T00:24:00.305Z,1003.24
2019-04-26T00:25:00.312Z,1003.22
2019-04-26T00:26:00.328Z,1003.20
2019-04-26T00:28:00.428Z,1003.20
2019-04-26T00:29:00.348Z,1003.18
2019-04-26T00:30:00.352Z,1003.13
2019-04-26T00:31:00.356Z,1003.13
2019-04-26T00:32:00.377Z,1003.12
2019-04-26T00:33:00.385Z,1003.17
2019-04-26T00:34:00.385Z,1003.16
2019-04-26T00:35:00.424Z,1003.14
2019-04-26T00:36:00.399Z,1003.15
2019-04-26T00:37:00.410Z,1003.12
2019-04-26T00:38:00.421Z,1003.14
2019-04-26T00:39:00.441Z,1003.16
2019-04-26T00:40:00.441Z,1003.20
2019-04-26T00:41:00.465Z,1003.22
2019-04-26T00:42:00.450Z,1003.20
2019-04-26T00:43:00.505Z,1003.25
2019-04-26T00:44:00.470Z,1003.24
2019-04-26T00:45:00.482Z,1003.21
2019-04-26T00:46:00.491Z,1003.18
2019-04-26T00:47:00.495Z,1003.17
2019-04-26T00:48:00.507Z,1003.16
2019-04-26T00:49:00.512Z,1003.18
2019-04-26T00:50:00.522Z,1003.16
2019-04-26T00:51:00.532Z,1003.13
2019-04-26T00:52:00.550Z,1003.14
2019-04-26T00:53:00.551Z,1003.12
2019-04-26T00:54:00.556Z,1003.13
2019-04-26T00:55:00.580Z,1003.18
2019-04-26T00:56:00.568Z,1003.22
2019-04-26T00:57:00.579Z,1003.27
2019-04-26T00:58:00.591Z,1003.33
2019-04-26T00:59:00.604Z,1003.37
2019-04-26T01:00:00.607Z,1003.40
2019-04-26T01:01:00.615Z,1003.44
2019-04-26T01:02:00.631Z,1003.44
2019-04-26T01:03:00.639Z,1003.46
2019-04-26T01:04:00.639Z,1003.50
2019-04-26T01:05:00.652Z,1003.49
2019-04-26T01:06:00.652Z,1003.49
2019-04-26T01:07:00.661Z,1003.52
2019-04-26T01:08:00.675Z,1003.49
2019-04-26T01:09:00.678Z,1003.48
2019-04-26T01:10:00.757Z,1003.44
2019-04-26T01:11:00.699Z,1003.47
2019-04-26T01:12:00.706Z,1003.43
2019-04-26T01:13:00.721Z,1003.40
2019-04-26T01:14:00.717Z,1003.38
2019-04-26T01:15:00.735Z,1003.38
2019-04-26T01:16:00.748Z,1003.35
2019-04-26T01:17:00.750Z,1003.38
2019-04-26T01:18:00.761Z,1003.41
2019-04-26T01:19:00.757Z,1003.40
2019-04-26T01:20:00.771Z,1003.43
2019-04-26T01:21:00.777Z,1003.51
2019-04-26T01:22:00.782Z,1003.56
2019-04-26T01:23:00.813Z,1003.60
2019-04-26T01:24:00.798Z,1003.66
2019-04-26T01:25:00.807Z,1003.69
2019-04-26T01:26:00.814Z,1003.76
2019-04-26T01:27:00.824Z,1003.80
2019-04-26T01:29:00.845Z,1003.91
2019-04-26T01:30:00.867Z,1003.92
2019-04-26T01:31:00.858Z,1003.94
2019-04-26T01:32:00.868Z,1003.95
2019-04-26T01:33:00.876Z,1003.99
2019-04-26T01:34:00.883Z,1003.96
2019-04-26T01:35:00.890Z,1003.87
2019-04-26T01:36:12.395Z,1003.84
2019-04-26T01:37:00.912Z,1003.77
2019-04-26T01:38:00.903Z,1003.71
2019-04-26T01:39:00.925Z,1003.67
2019-04-26T01:40:00.921Z,1003.64
2019-04-26T01:41:00.933Z,1003.63
2019-04-26T01:42:00.945Z,1003.63
2019-04-26T01:43:01.011Z,1003.67
2019-04-26T01:44:00.961Z,1003.66
2019-04-26T01:45:00.969Z,1003.71
2019-04-26T01:46:00.979Z,1003.77
2019-04-26T01:47:00.976Z,1003.76
2019-04-26T01:48:00.981Z,1003.81
2019-04-26T01:49:00.997Z,1003.82
2019-04-26T01:50:00.995Z,1003.86
2019-04-26T01:51:01.014Z,1003.93
2019-04-26T01:52:01.015Z,1003.93
2019-04-26T01:53:01.022Z,1004.01
2019-04-26T01:54:01.031Z,1004.03
2019-04-26T01:55:01.137Z,1004.00
2019-04-26T01:56:01.050Z,1004.05
2019-04-26T01:57:01.053Z,1004.08
2019-04-26T01:58:01.062Z,1004.04
2019-04-26T01:59:01.077Z,1004.05
2019-04-26T02:00:01.077Z,1004.02
2019-04-26T02:01:01.083Z,1003.91
2019-04-26T02:02:01.089Z,1003.86
2019-04-26T02:03:01.116Z,1003.81
2019-04-26T02:04:01.106Z,1003.82
2019-04-26T02:05:01.126Z,1003.89
2019-04-26T02:06:01.130Z,1003.93
2019-04-26T02:07:01.127Z,1003.91
2019-04-26T02:08:01.234Z,1003.92
2019-04-26T02:09:01.141Z,1003.90
2019-04-26T02:10:01.155Z,1003.83
2019-04-26T02:11:01.160Z,1003.78
2019-04-26T02:12:01.165Z,1003.77
2019-04-26T02:13:01.172Z,1003.86
2019-04-26T02:14:01.189Z,1003.85
2019-04-26T02:15:01.190Z,1003.90
2019-04-26T02:16:01.202Z,1003.91
2019-04-26T02:17:01.205Z,1003.91
2019-04-26T02:18:01.303Z,1003.93
2019-04-26T02:19:01.213Z,1003.94
2019-04-26T02:20:01.230Z,1003.95
2019-04-26T02:21:01.233Z,1003.97
2019-04-26T02:22:01.241Z,1004.00
2019-04-26T02:23:01.252Z,1003.95
2019-04-26T02:24:01.249Z,1004.00
2019-04-26T02:25:01.267Z,1004.01
2019-04-26T02:26:01.275Z,1004.06
2019-04-26T02:27:01.280Z,1004.06
2019-04-26T02:28:01.290Z,1004.10
2019-04-26T02:29:01.295Z,1004.07
2019-04-26T02:30:01.424Z,1004.10
2019-04-26T02:31:01.349Z,1004.12
2019-04-26T02:32:01.321Z,1004.12
2019-04-26T02:33:01.329Z,1004.16
2019-04-26T02:34:01.333Z,1004.21
2019-04-26T02:35:01.343Z,1004.24
2019-04-26T02:36:01.352Z,1004.23
2019-04-26T02:37:01.351Z,1004.28
2019-04-26T02:38:01.507Z,1004.31
2019-04-26T02:39:01.374Z,1004.33
2019-04-26T02:40:01.378Z,1004.34
2019-04-26T02:41:01.385Z,1004.31
2019-04-26T02:42:01.395Z,1004.30
2019-04-26T02:43:01.403Z,1004.31
2019-04-26T02:44:01.399Z,1004.30
2019-04-26T02:45:01.417Z,1004.27
2019-04-26T02:46:01.427Z,1004.24
2019-04-26T02:47:01.430Z,1004.23
2019-04-26T02:48:01.440Z,1004.25
2019-04-26T02:49:01.448Z,1004.29
2019-04-26T02:50:01.457Z,1004.25
2019-04-26T02:51:01.531Z,1004.26
2019-04-26T02:52:01.468Z,1004.20
2019-04-26T02:53:01.473Z,1004.19
2019-04-26T02:54:01.487Z,1004.13
2019-04-26T02:55:01.495Z,1004.11
2019-04-26T02:56:01.498Z,1004.07
2019-04-26T02:57:01.501Z,1004.08
2019-04-26T02:58:01.514Z,1004.07
2019-04-26T02:59:01.526Z,1004.03
2019-04-26T03:00:01.539Z,1004.09
2019-04-26T03:01:01.534Z,1004.12
2019-04-26T03:02:01.544Z,1004.16
2019-04-26T03:03:01.633Z,1004.19
2019-04-26T03:04:01.568Z,1004.25
2019-04-26T03:05:01.580Z,1004.30
2019-04-26T03:06:01.603Z,1004.29
2019-04-26T03:07:03.536Z,1004.27
2019-04-26T03:08:01.596Z,1004.23
2019-04-26T03:09:01.602Z,1004.20
2019-04-26T03:10:01.631Z,1004.19
2019-04-26T03:11:01.612Z,1004.08
2019-04-26T03:12:01.622Z,1003.96
2019-04-26T03:13:01.739Z,1003.95
2019-04-26T03:14:01.646Z,1003.95
2019-04-26T03:15:13.515Z,1004.02
2019-04-26T03:16:01.654Z,1004.12
2019-04-26T03:17:01.661Z,1004.16
2019-04-26T03:18:01.670Z,1004.18
2019-04-26T03:19:01.680Z,1004.25
2019-04-26T03:20:01.686Z,1004.20
2019-04-26T03:21:01.701Z,1004.17
2019-04-26T03:22:01.702Z,1004.10
2019-04-26T03:23:01.742Z,1004.05
2019-04-26T03:24:01.712Z,1004.02
2019-04-26T03:25:01.729Z,1004.03
2019-04-26T03:26:01.732Z,1004.02
2019-04-26T03:27:01.739Z,1004.05
2019-04-26T03:28:01.760Z,1004.01
2019-04-26T03:29:01.754Z,1004.03
2019-04-26T03:30:18.950Z,1003.96
2019-04-26T03:31:01.798Z,1003.90
2019-04-26T03:32:01.774Z,1003.84
2019-04-26T03:33:02.281Z,1003.76
2019-04-26T03:34:01.867Z,1003.71
2019-04-26T03:35:01.819Z,1003.71
2019-04-26T03:36:01.851Z,1003.73
2019-04-26T03:37:19.046Z,1003.75
2019-04-26T03:38:01.816Z,1003.82
2019-04-26T03:39:01.820Z,1003.84
2019-04-26T03:40:01.844Z,1003.85
2019-04-26T03:41:01.837Z,1003.84
2019-04-26T03:42:01.851Z,1003.90
2019-04-26T03:43:01.847Z,1003.90
2019-04-26T03:44:01.868Z,1003.91
2019-04-26T03:45:01.874Z,1003.90
2019-04-26T03:46:01.937Z,1003.90
2019-04-26T03:47:01.892Z,1003.91
2019-04-26T03:48:01.916Z,1003.90
2019-04-26T03:49:01.904Z,1003.91
2019-04-26T03:50:01.928Z,1003.91
2019-04-26T03:51:01.917Z,1004.02
2019-04-26T03:52:01.922Z,1004.07
2019-04-26T03:53:01.931Z,1004.14
2019-04-26T03:54:01.965Z,1004.25
2019-04-26T03:55:01.952Z,1004.27
2019-04-26T03:56:02.037Z,1004.34
2019-04-26T03:57:01.962Z,1004.32
2019-04-26T03:58:01.970Z,1004.33
2019-04-26T03:59:01.980Z,1004.35
2019-04-26T04:00:02.025Z,1004.42
2019-04-26T04:01:01.996Z,1004.45
2019-04-26T04:02:01.999Z,1004.48
2019-04-26T04:03:02.001Z,1004.50
2019-04-26T04:04:02.017Z,1004.54
2019-04-26T04:05:02.044Z,1004.54
2019-04-26T04:06:02.035Z,1004.50
2019-04-26T04:07:04.565Z,1004.48
2019-04-26T04:08:02.049Z,1004.52
2019-04-26T04:09:02.055Z,1004.53
2019-04-26T04:10:02.057Z,1004.51
2019-04-26T04:11:02.200Z,1004.55
2019-04-26T04:12:11.139Z,1004.58
2019-04-26T04:13:02.103Z,1004.59
2019-04-26T04:14:02.144Z,1004.65
2019-04-26T04:15:02.093Z,1004.63
2019-04-26T04:16:02.119Z,1004.60
2019-04-26T04:17:02.105Z,1004.61
2019-04-26T04:18:02.115Z,1004.68
2019-04-26T04:19:02.121Z,1004.64
2019-04-26T04:20:02.131Z,1004.65
2019-04-26T04:21:02.271Z,1004.65
2019-04-26T04:22:02.145Z,1004.66
2019-04-26T04:23:02.155Z,1004.64
2019-04-26T04:24:02.193Z,1004.63
2019-04-26T04:25:02.179Z,1004.60
2019-04-26T04:26:02.179Z,1004.60
2019-04-26T04:27:02.183Z,1004.59
2019-04-26T04:28:03.401Z,1004.58
2019-04-26T04:29:02.196Z,1004.62
2019-04-26T04:30:02.206Z,1004.60
2019-04-26T04:31:02.230Z,1004.65
2019-04-26T04:32:02.220Z,1004.67
2019-04-26T04:33:02.235Z,1004.67
2019-04-26T04:34:02.253Z,1004.66
2019-04-26T04:35:06.242Z,1004.63
2019-04-26T04:36:02.253Z,1004.60
2019-04-26T04:37:02.264Z,1004.55
2019-04-26T04:38:09.205Z,1004.54
2019-04-26T04:39:11.211Z,1004.51
2019-04-26T04:40:02.292Z,1004.57
2019-04-26T04:41:02.290Z,1004.61
2019-04-26T04:42:02.295Z,1004.64
2019-04-26T04:43:02.501Z,1004.66
2019-04-26T04:44:02.342Z,1004.65
2019-04-26T04:45:02.623Z,1004.60
2019-04-26T04:46:02.363Z,1004.49
2019-04-26T04:47:02.338Z,1004.46
2019-04-26T04:48:02.343Z,1004.45
2019-04-26T04:49:02.354Z,1004.45
2019-04-26T04:50:02.359Z,1004.47
2019-04-26T04:51:02.376Z,1004.54
2019-04-26T04:52:02.378Z,1004.57
2019-04-26T04:53:02.377Z,1004.59
2019-04-26T04:54:02.386Z,1004.62
2019-04-26T04:55:07.440Z,1004.67
2019-04-26T04:56:02.412Z,1004.67
2019-04-26T04:57:02.409Z,1004.70
2019-04-26T04:58:02.414Z,1004.71
2019-04-26T04:59:02.425Z,1004.75
2019-04-26T05:00:02.434Z,1004.80
2019-04-26T05:01:02.444Z,1004.82
2019-04-26T05:02:02.439Z,1004.84
2019-04-26T05:03:02.458Z,1004.94
2019-04-26T05:04:02.464Z,1004.86
2019-04-26T05:05:02.484Z,1004.93
2019-04-26T05:06:07.528Z,1004.88
2019-04-26T05:07:02.482Z,1004.90
2019-04-26T05:08:06.878Z,1004.98
2019-04-26T05:09:02.530Z,1005.00
2019-04-26T05:10:02.509Z,1004.98
2019-04-26T05:12:02.519Z,1005.06
2019-04-26T05:13:02.528Z,1005.11
2019-04-26T05:14:02.537Z,1005.14
2019-04-26T05:15:02.544Z,1005.12
2019-04-26T05:16:02.555Z,1005.19
2019-04-26T05:17:02.561Z,1005.16
2019-04-26T05:18:02.570Z,1005.15
2019-04-26T05:19:02.567Z,1005.15
2019-04-26T05:20:02.588Z,1005.04
2019-04-26T05:21:02.583Z,1004.96
2019-04-26T05:22:02.594Z,1004.98
2019-04-26T05:23:02.615Z,1004.95
2019-04-26T05:24:02.609Z,1004.98
2019-04-26T05:25:02.622Z,1004.94
2019-04-26T05:26:02.628Z,1004.97
2019-04-26T05:27:02.629Z,1004.90
2019-04-26T05:28:02.639Z,1004.86
2019-04-26T05:29:02.644Z,1004.85
2019-04-26T05:30:02.647Z,1004.84
2019-04-26T05:31:02.663Z,1004.90
2019-04-26T05:32:02.667Z,1004.86
2019-04-26T05:33:02.680Z,1004.84
2019-04-26T05:34:02.688Z,1004.89
2019-04-26T05:35:02.686Z,1004.93
2019-04-26T05:36:02.695Z,1005.01
2019-04-26T05:37:02.713Z,1005.06
2019-04-26T05:38:02.716Z,1005.13
2019-04-26T05:39:02.717Z,1005.16
2019-04-26T05:40:02.734Z,1005.11
2019-04-26T05:41:02.732Z,1005.08
2019-04-26T05:42:02.746Z,1005.13
2019-04-26T05:43:02.774Z,1005.15
2019-04-26T05:44:02.768Z,1005.14
2019-04-26T05:45:02.798Z,1005.18
2019-04-26T05:46:02.798Z,1005.23
2019-04-26T05:47:02.785Z,1005.25
2019-04-26T05:48:10.943Z,1005.24
2019-04-26T05:49:02.804Z,1005.26
2019-04-26T05:50:02.807Z,1005.27
2019-04-26T05:51:02.818Z,1005.28
2019-04-26T05:52:02.813Z,1005.30
2019-04-26T05:53:02.826Z,1005.29
2019-04-26T05:54:02.838Z,1005.30
2019-04-26T05:55:02.846Z,1005.34
2019-04-26T05:56:02.854Z,1005.34
2019-04-26T05:57:02.854Z,1005.34
2019-04-26T05:58:02.997Z,1005.36
2019-04-26T05:59:03.159Z,1005.35
2019-04-26T06:00:02.890Z,1005.31
2019-04-26T06:01:02.891Z,1005.32
2019-04-26T06:02:02.904Z,1005.31
2019-04-26T06:03:02.903Z,1005.28
2019-04-26T06:04:02.912Z,1005.23
2019-04-26T06:05:02.919Z,1005.25
2019-04-26T06:06:05.282Z,1005.27
2019-04-26T06:07:02.930Z,1005.28
2019-04-26T06:08:03.048Z,1005.28
2019-04-26T06:09:02.948Z,1005.32
2019-04-26T06:10:03.144Z,1005.33
2019-04-26T06:11:02.971Z,1005.33
2019-04-26T06:12:02.976Z,1005.34
2019-04-26T06:13:03.009Z,1005.39
2019-04-26T06:14:02.980Z,1005.40
2019-04-26T06:15:02.992Z,1005.45
2019-04-26T06:16:03.015Z,1005.49
2019-04-26T06:17:03.000Z,1005.48
2019-04-26T06:18:03.012Z,1005.51
2019-04-26T06:19:03.015Z,1005.49
2019-04-26T06:20:03.029Z,1005.46
2019-04-26T06:21:03.044Z,1005.45
2019-04-26T06:22:03.042Z,1005.48
2019-04-26T06:23:03.177Z,1005.48
2019-04-26T06:24:03.057Z,1005.50
2019-04-26T06:25:03.137Z,1005.49
2019-04-26T06:26:04.376Z,1005.51
2019-04-26T06:27:13.722Z,1005.50
2019-04-26T06:28:03.085Z,1005.51
2019-04-26T06:29:03.331Z,1005.52
2019-04-26T06:30:03.384Z,1005.56
2019-04-26T06:31:03.495Z,1005.51
2019-04-26T06:32:03.120Z,1005.48
2019-04-26T06:33:05.986Z,1005.52
2019-04-26T06:34:03.170Z,1005.53
2019-04-26T06:35:03.521Z,1005.58
2019-04-26T06:36:04.322Z,1005.58
2019-04-26T06:37:04.331Z,1005.59
2019-04-26T06:38:03.992Z,1005.59
2019-04-26T06:39:04.125Z,1005.58
2019-04-26T06:40:03.180Z,1005.56
2019-04-26T06:41:03.185Z,1005.50
2019-04-26T06:42:03.204Z,1005.51
2019-04-26T06:43:03.224Z,1005.51
2019-04-26T06:44:03.209Z,1005.48
2019-04-26T06:45:03.216Z,1005.54
2019-04-26T06:46:03.222Z,1005.56
2019-04-26T06:47:04.027Z,1005.56
2019-04-26T06:48:03.956Z,1005.61
2019-04-26T06:49:03.425Z,1005.60
2019-04-26T06:50:03.527Z,1005.59
2019-04-26T06:51:03.256Z,1005.62
2019-04-26T06:52:03.262Z,1005.59
2019-04-26T06:53:03.613Z,1005.63
2019-04-26T06:54:03.515Z,1005.67
2019-04-26T06:55:04.270Z,1005.73
2019-04-26T06:56:03.292Z,1005.75
2019-04-26T06:57:09.594Z,1005.78
2019-04-26T06:58:03.314Z,1005.83
2019-04-26T06:59:03.524Z,1005.79
2019-04-26T07:00:04.404Z,1005.89
2019-04-26T07:01:03.374Z,1005.87
2019-04-26T07:02:03.338Z,1005.88
2019-04-26T07:03:03.599Z,1005.84
2019-04-26T07:04:04.164Z,1005.78
2019-04-26T07:05:03.384Z,1005.78
2019-04-26T07:06:04.428Z,1005.79
2019-04-26T07:07:04.557Z,1005.81
2019-04-26T07:08:04.888Z,1005.82
2019-04-26T07:09:03.740Z,1005.90
2019-04-26T07:10:04.066Z,1005.91
2019-04-26T07:11:03.530Z,1005.97
2019-04-26T07:12:03.409Z,1005.97
2019-04-26T07:13:03.980Z,1005.99
2019-04-26T07:14:03.420Z,1006.01
2019-04-26T07:15:03.796Z,1005.99
2019-04-26T07:16:16.492Z,1006.02
2019-04-26T07:17:04.518Z,1006.01
2019-04-26T07:18:04.416Z,1006.02
2019-04-26T07:19:03.523Z,1006.10
2019-04-26T07:20:04.542Z,1006.11
2019-04-26T07:21:04.521Z,1006.14
2019-04-26T07:22:04.081Z,1006.17
2019-04-26T07:23:03.764Z,1006.15
2019-04-26T07:24:03.945Z,1006.17
2019-04-26T07:25:03.586Z,1006.20
2019-04-26T07:26:03.820Z,1006.21
2019-04-26T07:27:03.549Z,1006.23
2019-04-26T07:28:07.677Z,1006.27
2019-04-26T07:29:04.582Z,1006.32
2019-04-26T07:30:04.890Z,1006.28
2019-04-26T07:31:04.150Z,1006.24
2019-04-26T07:32:03.560Z,1006.22
2019-04-26T07:33:04.165Z,1006.16
2019-04-26T07:34:03.605Z,1006.10
2019-04-26T07:35:04.494Z,1006.10
2019-04-26T07:36:03.795Z,1006.13
2019-04-26T07:37:04.566Z,1006.08
2019-04-26T07:38:04.747Z,1006.09
2019-04-26T07:39:13.245Z,1006.07
2019-04-26T07:40:03.618Z,1005.99
2019-04-26T07:41:03.641Z,1005.98
2019-04-26T07:42:03.634Z,1006.00
2019-04-26T07:43:03.647Z,1006.01
2019-04-26T07:44:03.841Z,1006.00
2019-04-26T07:45:03.817Z,1006.04
2019-04-26T07:46:04.050Z,1006.05
2019-04-26T07:47:04.148Z,1006.01
2019-04-26T07:48:03.680Z,1006.08
2019-04-26T07:49:04.204Z,1006.06
2019-04-26T07:50:05.080Z,1006.11
2019-04-26T07:51:04.396Z,1006.08
2019-04-26T07:52:04.332Z,1006.15
2019-04-26T07:53:04.927Z,1006.22
2019-04-26T07:54:04.965Z,1006.30
2019-04-26T07:55:04.861Z,1006.34
2019-04-26T07:56:04.924Z,1006.39
2019-04-26T07:57:04.597Z,1006.55
2019-04-26T07:58:05.192Z,1006.54
2019-04-26T07:59:05.557Z,1006.63
2019-04-26T08:00:04.238Z,1006.57
2019-04-26T08:01:04.049Z,1006.65
2019-04-26T08:02:05.043Z,1006.67
2019-04-26T08:03:04.126Z,1006.53
2019-04-26T08:04:03.922Z,1006.65
2019-04-26T08:05:04.742Z,1006.65
2019-04-26T08:06:04.570Z,1006.59
2019-04-26T08:07:04.830Z,1006.65
2019-04-26T08:08:04.234Z,1006.67
2019-04-26T08:09:04.760Z,1006.67
2019-04-26T08:10:05.001Z,1006.66
2019-04-26T08:11:04.598Z,1006.68
2019-04-26T08:12:04.996Z,1006.78
2019-04-26T08:13:05.001Z,1006.80
2019-04-26T08:14:04.748Z,1006.80
2019-04-26T08:15:04.727Z,1006.71
2019-04-26T08:16:05.033Z,1006.67
2019-04-26T08:17:04.971Z,1006.68
2019-04-26T08:18:05.178Z,1006.63
2019-04-26T08:19:03.978Z,1006.54
2019-04-26T08:20:06.693Z,1006.55
2019-04-26T08:21:09.937Z,1006.65
2019-04-26T08:22:15.247Z,1006.69
2019-04-26T08:23:09.083Z,1006.73
2019-04-26T08:24:03.969Z,1006.62
2019-04-26T08:25:03.972Z,1006.61
2019-04-26T08:26:05.082Z,1006.61
2019-04-26T08:27:13.760Z,1006.62
2019-04-26T08:28:03.994Z,1006.76
2019-04-26T08:29:04.007Z,1006.83
2019-04-26T08:30:10.245Z,1006.80
2019-04-26T08:31:05.942Z,1006.81
2019-04-26T08:32:04.033Z,1006.82
2019-04-26T08:33:07.560Z,1007.04
2019-04-26T08:34:04.049Z,1007.10
2019-04-26T08:35:07.769Z,1007.05
2019-04-26T08:36:04.081Z,1006.93
2019-04-26T08:37:04.066Z,1006.96
2019-04-26T08:38:07.930Z,1007.07
2019-04-26T08:39:04.084Z,1007.13
2019-04-26T08:40:04.101Z,1007.08
2019-04-26T08:41:05.031Z,1007.04
2019-04-26T08:42:04.108Z,1007.06
2019-04-26T08:43:04.113Z,1007.12
2019-04-26T08:44:05.708Z,1007.09
2019-04-26T08:45:04.429Z,1007.14
2019-04-26T08:46:04.139Z,1007.18
2019-04-26T08:47:06.012Z,1007.16
2019-04-26T08:48:04.166Z,1007.21
2019-04-26T08:49:06.405Z,1007.26
2019-04-26T08:50:04.170Z,1007.31
2019-04-26T08:51:04.173Z,1007.25
2019-04-26T08:52:13.962Z,1007.26
2019-04-26T08:53:04.191Z,1007.24
2019-04-26T08:54:04.215Z,1007.19
2019-04-26T08:55:04.208Z,1007.28
2019-04-26T08:56:04.226Z,1007.33
2019-04-26T08:57:04.228Z,1007.26
2019-04-26T08:58:04.228Z,1007.26
2019-04-26T08:59:04.244Z,1007.28
2019-04-26T09:00:04.255Z,1007.24
2019-04-26T09:01:04.258Z,1007.28
2019-04-26T09:02:04.268Z,1007.23
2019-04-26T09:03:11.296Z,1007.30
2019-04-26T09:04:04.286Z,1007.26
2019-04-26T09:05:04.302Z,1007.31
2019-04-26T09:06:04.291Z,1007.34
2019-04-26T09:07:04.443Z,1007.40
2019-04-26T09:08:04.326Z,1007.41
2019-04-26T09:09:04.319Z,1007.48
2019-04-26T09:10:10.826Z,1007.59
2019-04-26T09:11:04.355Z,1007.60
2019-04-26T09:12:08.165Z,1007.70
2019-04-26T09:13:04.352Z,1007.73
2019-04-26T09:14:04.360Z,1007.74
2019-04-26T09:15:04.375Z,1007.79
2019-04-26T09:16:04.452Z,1007.80
2019-04-26T09:17:04.442Z,1007.83
2019-04-26T09:18:06.096Z,1007.74
2019-04-26T09:19:04.405Z,1007.91
2019-04-26T09:20:08.004Z,1007.99
2019-04-26T09:21:04.420Z,1007.88
2019-04-26T09:22:12.743Z,1007.79
2019-04-26T09:23:05.029Z,1007.65
2019-04-26T09:24:04.456Z,1007.45
2019-04-26T09:25:04.453Z,1007.40
2019-04-26T09:26:04.492Z,1007.34
2019-04-26T09:27:04.474Z,1007.42
2019-04-26T09:28:04.484Z,1007.42
2019-04-26T09:29:04.504Z,1007.42
2019-04-26T09:30:05.357Z,1007.49
2019-04-26T09:31:04.520Z,1007.60
2019-04-26T09:32:04.522Z,1007.65
2019-04-26T09:33:04.540Z,1007.71
2019-04-26T09:34:06.303Z,1007.78
2019-04-26T09:35:04.544Z,1007.65
2019-04-26T09:36:04.551Z,1007.78
2019-04-26T09:37:04.586Z,1007.85
2019-04-26T09:38:04.572Z,1007.73
2019-04-26T09:39:08.409Z,1007.52
2019-04-26T09:40:10.621Z,1007.48
2019-04-26T09:41:04.600Z,1007.58
2019-04-26T09:42:06.005Z,1007.65
2019-04-26T09:43:04.622Z,1007.77
2019-04-26T09:44:04.633Z,1007.72
2019-04-26T09:45:04.656Z,1007.75
2019-04-26T09:46:04.650Z,1007.77
2019-04-26T09:47:04.662Z,1007.62
2019-04-26T09:48:04.668Z,1007.61
2019-04-26T09:49:07.056Z,1007.69
2019-04-26T09:50:04.686Z,1007.66
2019-04-26T09:51:04.697Z,1007.72
2019-04-26T09:52:04.839Z,1007.67
2019-04-26T09:53:04.716Z,1007.70
2019-04-26T09:54:04.725Z,1007.74
2019-04-26T09:55:04.735Z,1007.79
2019-04-26T09:58:04.787Z,1007.84
2019-04-26T09:59:05.613Z,1007.91
2019-04-26T10:00:04.781Z,1007.96
2019-04-26T10:01:06.184Z,1007.88
2019-04-26T10:02:04.803Z,1007.93
2019-04-26T10:03:05.541Z,1007.91
2019-04-26T10:04:04.824Z,1007.88
2019-04-26T10:05:08.084Z,1007.75
2019-04-26T10:06:04.833Z,1007.73
2019-04-26T10:07:04.852Z,1007.66
2019-04-26T10:08:08.327Z,1007.66
2019-04-26T10:09:04.870Z,1007.65
2019-04-26T10:10:04.873Z,1007.68
2019-04-26T10:11:05.742Z,1007.71
2019-04-26T10:12:04.888Z,1007.77
2019-04-26T10:13:04.905Z,1007.82
2019-04-26T10:14:04.907Z,1007.79
2019-04-26T10:15:04.925Z,1007.81
2019-04-26T10:16:04.935Z,1007.82
2019-04-26T10:17:04.944Z,1007.82
2019-04-26T10:18:04.946Z,1007.78
2019-04-26T10:20:04.965Z,1007.91
2019-04-26T10:21:04.986Z,1008.05
2019-04-26T10:22:04.983Z,1008.24
2019-04-26T10:23:05.025Z,1008.34
2019-04-26T10:24:05.005Z,1008.26
2019-04-26T10:25:07.659Z,1007.85
2019-04-26T10:26:05.017Z,1007.82
2019-04-26T10:27:05.051Z,1007.73
2019-04-26T10:28:05.043Z,1007.65
2019-04-26T10:29:05.047Z,1007.56
2019-04-26T10:31:05.072Z,1007.75
2019-04-26T10:32:05.080Z,1007.47
2019-04-26T10:33:05.087Z,1007.48
2019-04-26T10:34:07.714Z,1007.87
2019-04-26T10:35:05.109Z,1007.81
2019-04-26T10:36:05.123Z,1007.77
2019-04-26T10:37:06.198Z,1007.73
2019-04-26T10:38:05.142Z,1007.77
2019-04-26T10:39:05.155Z,1007.79
2019-04-26T10:40:05.162Z,1007.69
2019-04-26T10:41:05.161Z,1007.72
2019-04-26T10:42:05.181Z,1007.74
2019-04-26T10:43:05.183Z,1007.79
2019-04-26T10:44:05.213Z,1007.76
2019-04-26T10:45:05.208Z,1007.75
2019-04-26T10:46:05.218Z,1007.73
2019-04-26T10:47:06.028Z,1007.78
2019-04-26T10:48:05.241Z,1007.84
2019-04-26T10:49:09.708Z,1007.77
2019-04-26T10:50:05.253Z,1007.72
2019-04-26T10:51:07.314Z,1007.72
2019-04-26T10:52:05.275Z,1007.62
2019-04-26T10:53:05.285Z,1007.62
2019-04-26T10:54:05.922Z,1007.64
2019-04-26T10:55:05.310Z,1007.59
2019-04-26T10:56:05.307Z,1007.57
2019-04-26T10:57:05.328Z,1007.56
2019-04-26T10:58:05.343Z,1007.52
2019-04-26T10:59:06.064Z,1007.51
2019-04-26T11:00:05.364Z,1007.55
2019-04-26T11:01:05.358Z,1007.63
2019-04-26T11:02:05.370Z,1007.62
2019-04-26T11:03:06.195Z,1007.59
2019-04-26T11:04:05.396Z,1007.66
2019-04-26T11:05:05.477Z,1007.63
2019-04-26T11:06:05.410Z,1007.68
2019-04-26T11:07:05.430Z,1007.65
2019-04-26T11:08:05.454Z,1007.60
2019-04-26T11:09:05.437Z,1007.60
2019-04-26T11:10:05.448Z,1007.71
2019-04-26T11:11:05.451Z,1007.88
2019-04-26T11:12:05.467Z,1007.87
2019-04-26T11:13:05.473Z,1007.90
2019-04-26T11:14:05.477Z,1008.00
2019-04-26T11:15:06.267Z,1008.01
2019-04-26T11:16:07.188Z,1007.90
2019-04-26T11:17:05.505Z,1007.99
2019-04-26T11:18:05.540Z,1007.90
2019-04-26T11:19:05.532Z,1007.80
2019-04-26T11:20:06.189Z,1007.88
2019-04-26T11:21:05.565Z,1007.77
2019-04-26T11:22:05.554Z,1007.83
2019-04-26T11:23:08.122Z,1008.00
2019-04-26T11:24:05.676Z,1008.11
2019-04-26T11:25:05.596Z,1008.04
2019-04-26T11:26:05.647Z,1007.96
2019-04-26T11:27:09.686Z,1007.87
2019-04-26T11:28:05.623Z,1007.89
2019-04-26T11:30:11.475Z,1007.94
2019-04-26T11:31:05.641Z,1007.90
2019-04-26T11:32:05.664Z,1007.93
2019-04-26T11:33:07.280Z,1007.87
2019-04-26T11:34:05.866Z,1007.86
2019-04-26T11:35:05.701Z,1007.80
2019-04-26T11:36:07.404Z,1007.83
2019-04-26T11:37:05.702Z,1007.89
2019-04-26T11:38:05.712Z,1007.98
2019-04-26T11:39:07.318Z,1007.89
2019-04-26T11:40:05.723Z,1007.76
2019-04-26T11:41:06.748Z,1007.82
2019-04-26T11:42:07.996Z,1007.80
2019-04-26T11:43:05.761Z,1007.79
2019-04-26T11:44:05.774Z,1007.75
2019-04-26T11:45:06.748Z,1007.83
2019-04-26T11:46:05.821Z,1007.90
2019-04-26T11:47:07.926Z,1007.95
2019-04-26T11:48:05.795Z,1008.03
2019-04-26T11:49:07.175Z,1008.05
2019-04-26T11:50:05.849Z,1008.20
2019-04-26T11:51:05.832Z,1008.07
2019-04-26T11:52:05.840Z,1008.16
2019-04-26T11:53:06.172Z,1008.25
2019-04-26T11:54:05.849Z,1008.14
2019-04-26T11:55:05.867Z,1008.19
2019-04-26T11:56:05.965Z,1008.17
2019-04-26T11:57:08.250Z,1008.13
2019-04-26T11:58:05.948Z,1008.09
2019-04-26T11:59:05.904Z,1008.12
2019-04-26T12:00:06.672Z,1008.13
2019-04-26T12:01:05.920Z,1008.25
2019-04-26T12:02:06.060Z,1008.34
2019-04-26T12:03:05.956Z,1008.32
2019-04-26T12:04:07.334Z,1008.25
2019-04-26T12:05:05.963Z,1008.32
2019-04-26T12:06:06.373Z,1008.28
2019-04-26T12:07:05.987Z,1008.35
2019-04-26T12:08:06.011Z,1008.23
2019-04-26T12:10:09.602Z,1008.26
2019-04-26T12:11:17.577Z,1008.33
2019-04-26T12:12:09.230Z,1008.26
2019-04-26T12:13:06.291Z,1008.26
2019-04-26T12:14:06.066Z,1008.31